Time;durP1;ratioP1;P1;durP2;ratioP2;P2;SDS_P1;SDS_P2;PMS_P1;PMS_P2;Temp;Humidity;BMP_temperature;BMP_pressure;BME280_temperature;BME280_humidity;BME280_pressure;Samples;Min_cycle;Max_cycle;Signal;HPM_P1;HPM_P2
2022/09/05 00:01:07;;;;;;;5.35;3.17;;;;;;;;;;2032239;29;20122;-89
2022/09/05 00:02:19;;;;;;;5.20;2.60;;;;;;;;;;2033527;29;20032;-89
2022/09/05 00:03:28;;;;;;;4.18;3.20;;;;;;;;;;2032267;29;20091;-89
2022/09/05 00:05:01;;;;;;;3.90;2.53;;;;;;;;;;2025397;29;20133;-89
2022/09/05 00:06:07;;;;;;;2.88;2.17;;;;;;;;;;2037136;29;20036;-90
2022/09/05 00:07:10;;;;;;;4.82;2.50;;;;;;;;;;2040742;29;20074;-89
2022/09/05 00:08:35;;;;;;;3.97;2.90;;;;;;;;;;2032171;29;20047;-89
2022/09/05 00:09:36;;;;;;;3.53;2.67;;;;;;;;;;2035592;29;20130;-88
2022/09/05 00:10:51;;;;;;;5.88;2.65;;;;;;;;;;2032563;29;20087;-88
2022/09/05 00:11:57;;;;;;;4.57;2.65;;;;;;;;;;2026123;29;20058;-89
2022/09/05 00:13:00;;;;;;;5.75;2.80;;;;;;;;;;2024987;29;20075;-89
2022/09/05 00:14:19;;;;;;;3.13;2.42;;;;;;;;;;2024778;29;20080;-89
2022/09/05 00:15:32;;;;;;;2.78;2.38;;;;;;;;;;2034714;29;20032;-90
2022/09/05 00:16:38;;;;;;;3.95;2.50;;;;;;;;;;2032136;29;20027;-90
2022/09/05 00:18:09;;;;;;;4.05;2.60;;;;;;;;;;2037886;29;20067;-90
2022/09/05 00:19:27;;;;;;;2.75;2.25;;;;;;;;;;2039860;29;20242;-90
2022/09/05 00:21:04;;;;;;;4.97;3.00;;;;;;;;;;2042552;29;20114;-89
2022/09/05 00:22:28;;;;;;;3.25;2.53;;;;;;;;;;2036650;29;20024;-89
2022/09/05 00:23:29;;;;;;;3.55;2.75;;;;;;;;;;2032956;29;20051;-89
2022/09/05 00:24:56;;;;;;;3.72;2.53;;;;;;;;;;2032190;29;20515;-89
2022/09/05 00:26:29;;;;;;;4.05;2.78;;;;;;;;;;2034814;29;20020;-89
2022/09/05 00:28:07;;;;;;;3.13;2.83;;;;;;;;;;2039544;29;20024;-89
2022/09/05 00:29:47;;;;;;;4.53;2.80;;;;;;;;;;2040011;29;20024;-89
2022/09/05 00:35:37;;;;;;;4.97;3.35;;;;;;;;;;2040555;29;20031;-89
2022/09/05 00:36:45;;;;;;;3.55;2.45;;;;;;;;;;2040505;29;20480;-87
2022/09/05 00:37:48;;;;;;;4.65;3.55;;;;;;;;;;2042906;29;20447;-88
2022/09/05 00:39:18;;;;;;;4.20;2.80;;;;;;;;;;2040564;29;20027;-89
2022/09/05 00:40:30;;;;;;;3.60;2.80;;;;;;;;;;2040419;29;20035;-89
2022/09/05 00:41:31;;;;;;;4.22;2.90;;;;;;;;;;2040487;29;20475;-87
2022/09/05 00:42:31;;;;;;;4.72;2.90;;;;;;;;;;2039670;29;20031;-88
2022/09/05 00:43:41;;;;;;;3.67;3.20;;;;;;;;;;2039822;29;20475;-89
2022/09/05 00:44:57;;;;;;;4.97;2.90;;;;;;;;;;2039706;29;20032;-89
2022/09/05 00:46:00;;;;;;;6.60;3.10;;;;;;;;;;2034029;29;20425;-89
2022/09/05 00:47:06;;;;;;;5.78;3.25;;;;;;;;;;2032484;29;20036;-89
2022/09/05 00:48:12;;;;;;;5.47;3.30;;;;;;;;;;2034020;29;20032;-90
2022/09/05 00:49:31;;;;;;;5.03;2.75;;;;;;;;;;2034289;29;20098;-91
2022/09/05 00:50:43;;;;;;;4.47;3.10;;;;;;;;;;2041697;29;20034;-89
2022/09/05 00:51:51;;;;;;;4.68;3.30;;;;;;;;;;2041281;29;20075;-88
2022/09/05 00:53:26;;;;;;;4.53;3.15;;;;;;;;;;2041786;29;20740;-88
2022/09/05 00:54:54;;;;;;;4.70;3.22;;;;;;;;;;2040946;29;20602;-88
2022/09/05 00:56:06;;;;;;;4.78;2.67;;;;;;;;;;2041271;29;20063;-89
2022/09/05 00:57:21;;;;;;;4.40;2.95;;;;;;;;;;1700839;29;10000077;-90
2022/09/05 00:58:22;;;;;;;4.03;3.00;;;;;;;;;;2041298;29;20116;-88
2022/09/05 00:59:58;;;;;;;4.55;3.00;;;;;;;;;;2041261;29;20115;-89
2022/09/05 01:01:03;;;;;;;4.45;3.30;;;;;;;;;;2041310;29;20031;-90
2022/09/05 01:02:03;;;;;;;4.20;3.30;;;;;;;;;;2041561;29;20031;-88
2022/09/05 01:03:24;;;;;;;4.80;3.25;;;;;;;;;;2041885;29;20031;-87
2022/09/05 01:04:57;;;;;;;4.63;3.65;;;;;;;;;;2049077;29;20117;-89
2022/09/05 01:06:08;;;;;;;6.07;3.10;;;;;;;;;;2028591;29;20447;-87
2022/09/05 01:07:31;;;;;;;4.20;3.22;;;;;;;;;;2042127;29;20479;-89
2022/09/05 01:09:09;;;;;;;4.72;2.88;;;;;;;;;;2041236;29;20183;-87
2022/09/05 01:10:39;;;;;;;4.43;3.08;;;;;;;;;;2038118;29;20087;-88
2022/09/05 01:11:42;;;;;;;5.47;2.90;;;;;;;;;;2013419;29;20500;-89
2022/09/05 01:13:08;;;;;;;3.72;3.22;;;;;;;;;;2040745;29;20130;-88
2022/09/05 01:14:36;;;;;;;5.97;3.54;;;;;;;;;;1999531;29;10319701;-88
2022/09/05 01:16:04;;;;;;;4.18;2.90;;;;;;;;;;2041589;29;20665;-88
2022/09/05 01:17:29;;;;;;;4.85;3.20;;;;;;;;;;2041677;29;20032;-88
2022/09/05 01:18:46;;;;;;;3.92;3.08;;;;;;;;;;2033312;29;20035;-88
2022/09/05 01:20:07;;;;;;;4.20;3.13;;;;;;;;;;2027521;29;20071;-88
2022/09/05 01:21:53;;;;;;;7.10;3.55;;;;;;;;;;2036199;29;20648;-88
2022/09/05 01:22:59;;;;;;;4.93;3.45;;;;;;;;;;2040815;29;20043;-89
2022/09/05 01:24:02;;;;;;;5.72;3.05;;;;;;;;;;2041791;29;20031;-88
2022/09/05 01:25:35;;;;;;;4.68;3.05;;;;;;;;;;2033132;29;20024;-89
2022/09/05 01:27:17;;;;;;;4.82;3.13;;;;;;;;;;2021557;29;20071;-88
2022/09/05 01:28:22;;;;;;;;;;;;;;;;;;2026505;29;20040;-88
2022/09/05 01:29:41;;;;;;;3.05;2.67;;;;;;;;;;2025921;29;19919;-88
2022/09/05 01:30:51;;;;;;;4.25;3.38;;;;;;;;;;2027567;29;20123;-88
2022/09/05 01:32:15;;;;;;;5.00;3.70;;;;;;;;;;2026420;29;20035;-89
2022/09/05 01:33:37;;;;;;;7.93;3.30;;;;;;;;;;2036535;29;20028;-89
2022/09/05 01:35:02;;;;;;;6.57;3.90;;;;;;;;;;2041421;29;20019;-89
2022/09/05 01:36:09;;;;;;;6.38;3.28;;;;;;;;;;2032534;29;20044;-88
2022/09/05 01:37:18;;;;;;;8.10;4.70;;;;;;;;;;2033733;29;20437;-88
2022/09/05 01:38:45;;;;;;;3.95;2.88;;;;;;;;;;2033391;29;20031;-88
2022/09/05 01:39:49;;;;;;;6.40;4.03;;;;;;;;;;2037199;29;20031;-88
2022/09/05 01:41:02;;;;;;;4.53;3.78;;;;;;;;;;2042408;29;20727;-88
2022/09/05 01:42:28;;;;;;;4.20;3.58;;;;;;;;;;2033085;29;20053;-88
2022/09/05 01:43:57;;;;;;;5.43;3.60;;;;;;;;;;2033905;29;20439;-89
2022/09/05 01:45:05;;;;;;;6.15;3.72;;;;;;;;;;1693966;29;10001331;-89
2022/09/05 01:46:50;;;;;;;4.82;3.58;;;;;;;;;;2034022;29;20032;-90
2022/09/05 01:48:13;;;;;;;5.68;3.95;;;;;;;;;;2026555;29;20615;-90
2022/09/05 01:49:14;;;;;;;6.78;4.25;;;;;;;;;;2025101;29;20072;-89
2022/09/05 01:50:40;;;;;;;6.90;3.67;;;;;;;;;;2031353;29;20036;-90
2022/09/05 01:52:06;;;;;;;7.35;3.90;;;;;;;;;;2028302;29;20063;-90
2022/09/05 01:53:07;;;;;;;4.85;3.42;;;;;;;;;;1997443;29;20038;-89
2022/09/05 01:54:28;;;;;;;5.25;3.72;;;;;;;;;;2031048;29;20503;-90
2022/09/05 01:55:54;;;;;;;5.15;4.00;;;;;;;;;;2033069;29;20581;-89
2022/09/05 01:57:05;;;;;;;6.05;4.13;;;;;;;;;;2028853;29;20028;-89
2022/09/05 01:58:27;;;;;;;5.57;3.67;;;;;;;;;;2026730;29;20029;-89
2022/09/05 01:59:39;;;;;;;5.15;3.78;;;;;;;;;;1689586;29;10001090;-88
2022/09/05 02:01:17;;;;;;;5.22;4.10;;;;;;;;;;2026672;29;20103;-89
2022/09/05 02:02:41;;;;;;;5.80;3.85;;;;;;;;;;2037868;29;20660;-88
2022/09/05 02:03:47;;;;;;;5.25;3.85;;;;;;;;;;2040962;29;20035;-87
2022/09/05 02:05:24;;;;;;;4.85;3.58;;;;;;;;;;2032390;29;20019;-88
2022/09/05 02:06:34;;;;;;;6.88;4.00;;;;;;;;;;2030378;29;20024;-90
2022/09/05 02:08:02;;;;;;;6.57;3.47;;;;;;;;;;2033640;29;20020;-89
2022/09/05 02:09:31;;;;;;;9.05;3.92;;;;;;;;;;2033744;29;20027;-89
2022/09/05 02:11:04;;;;;;;5.82;3.63;;;;;;;;;;2033836;29;20042;-90
2022/09/05 02:12:39;;;;;;;6.18;3.90;;;;;;;;;;2025125;29;20032;-90
2022/09/05 02:13:54;;;;;;;8.13;3.65;;;;;;;;;;1694391;29;10001715;-90
2022/09/05 02:15:03;;;;;;;9.23;4.18;;;;;;;;;;2033161;29;20031;-89
2022/09/05 02:16:22;;;;;;;5.93;3.90;;;;;;;;;;2026295;29;20028;-88
2022/09/05 02:17:56;;;;;;;7.07;3.78;;;;;;;;;;2039255;29;20500;-89
2022/09/05 02:19:16;;;;;;;4.82;3.60;;;;;;;;;;2028468;29;20033;-89
2022/09/05 02:20:40;;;;;;;6.75;4.00;;;;;;;;;;2022733;29;20060;-89
2022/09/05 02:21:47;;;;;;;9.30;4.95;;;;;;;;;;2025400;29;20044;-90
2022/09/05 02:23:00;;;;;;;4.95;3.83;;;;;;;;;;2033742;29;20095;-90
2022/09/05 02:24:32;;;;;;;5.93;3.85;;;;;;;;;;2046157;29;20059;-89
2022/09/05 02:26:04;;;;;;;5.35;4.03;;;;;;;;;;2025176;29;20476;-89
2022/09/05 02:27:11;;;;;;;6.53;3.80;;;;;;;;;;2026107;29;20072;-89
2022/09/05 02:28:25;;;;;;;7.00;4.82;;;;;;;;;;2025661;29;20032;-89
2022/09/05 02:29:40;;;;;;;7.50;4.55;;;;;;;;;;2019270;29;20036;-89
2022/09/05 02:30:51;;;;;;;7.72;4.68;;;;;;;;;;2026954;29;20108;-90
2022/09/05 02:32:12;;;;;;;6.05;4.10;;;;;;;;;;2033805;29;20039;-90
2022/09/05 02:33:21;;;;;;;5.82;3.95;;;;;;;;;;2040071;29;20044;-89
2022/09/05 02:34:30;;;;;;;5.55;4.03;;;;;;;;;;2029828;29;20159;-89
2022/09/05 02:35:46;;;;;;;5.63;4.53;;;;;;;;;;2026916;29;20029;-90
2022/09/05 02:37:31;;;;;;;6.95;3.85;;;;;;;;;;1680879;29;10238099;-90
2022/09/05 02:38:35;;;;;;;5.20;3.95;;;;;;;;;;2031219;29;20035;-89
2022/09/05 02:40:00;;;;;;;5.55;3.72;;;;;;;;;;2025012;29;20115;-89
2022/09/05 02:41:15;;;;;;;6.07;4.20;;;;;;;;;;2028760;29;20032;-89
2022/09/05 02:42:31;;;;;;;4.60;3.55;;;;;;;;;;2033617;29;20042;-89
2022/09/05 02:43:39;;;;;;;5.45;4.72;;;;;;;;;;2024845;29;20033;-89
2022/09/05 02:44:40;;;;;;;5.75;3.67;;;;;;;;;;2033642;29;20396;-90
2022/09/05 02:45:49;;;;;;;5.20;4.20;;;;;;;;;;2032939;29;20035;-90
2022/09/05 02:47:21;;;;;;;7.50;4.13;;;;;;;;;;2026313;29;20106;-89
2022/09/05 02:48:39;;;;;;;5.25;3.80;;;;;;;;;;2033400;29;20055;-90
2022/09/05 02:49:48;;;;;;;5.65;3.30;;;;;;;;;;2033714;29;20062;-89
2022/09/05 02:50:56;;;;;;;5.22;3.58;;;;;;;;;;2033473;29;20519;-89
2022/09/05 02:52:02;;;;;;;4.88;3.75;;;;;;;;;;2024941;29;20115;-89
2022/09/05 02:53:06;;;;;;;4.90;3.60;;;;;;;;;;2017804;29;20033;-89
2022/09/05 02:54:15;;;;;;;8.15;4.07;;;;;;;;;;2025065;29;20790;-89
2022/09/05 02:55:41;;;;;;;5.97;3.80;;;;;;;;;;2031645;29;20066;-89
2022/09/05 02:57:03;;;;;;;5.93;3.63;;;;;;;;;;1992616;29;20038;-88
2022/09/05 02:58:38;;;;;;;5.57;3.45;;;;;;;;;;2019913;29;20039;-89
2022/09/05 02:59:47;;;;;;;8.20;3.95;;;;;;;;;;2021552;29;20043;-90
2022/09/05 03:01:26;;;;;;;4.82;3.50;;;;;;;;;;2026156;29;20040;-89
2022/09/05 03:02:45;;;;;;;6.68;3.53;;;;;;;;;;2008964;29;20041;-87
2022/09/05 03:04:11;;;;;;;5.75;4.15;;;;;;;;;;2024649;29;20685;-87
2022/09/05 03:05:20;;;;;;;4.65;3.60;;;;;;;;;;2028181;29;20415;-88
2022/09/05 03:06:53;;;;;;;5.88;4.10;;;;;;;;;;2024814;29;20640;-88
2022/09/05 03:08:17;;;;;;;5.70;3.65;;;;;;;;;;2020985;29;20024;-88
2022/09/05 03:09:48;;;;;;;4.65;3.58;;;;;;;;;;2019785;29;20051;-88
2022/09/05 03:11:13;;;;;;;7.43;5.10;;;;;;;;;;2035953;29;20028;-88
2022/09/05 03:13:03;;;;;;;6.18;4.00;;;;;;;;;;2029808;29;20043;-88
2022/09/05 03:14:34;;;;;;;8.52;3.80;;;;;;;;;;2023138;29;20044;-88
2022/09/05 03:15:53;;;;;;;6.50;4.22;;;;;;;;;;2033370;29;20024;-87
2022/09/05 03:17:05;;;;;;;7.00;3.97;;;;;;;;;;2024526;29;20025;-87
2022/09/05 03:18:23;;;;;;;6.68;4.20;;;;;;;;;;2032516;29;20570;-87
2022/09/05 03:19:27;;;;;;;6.63;4.00;;;;;;;;;;2032796;29;20028;-88
2022/09/05 03:23:02;;;;;;;6.50;3.70;;;;;;;;;;2024398;29;20032;-86
2022/09/05 03:24:23;;;;;;;6.65;3.75;;;;;;;;;;2032950;29;20080;-87
2022/09/05 03:25:35;;;;;;;;;;;;;;;;;;2033391;29;20036;-87
2022/09/05 03:28:55;;;;;;;6.45;3.85;;;;;;;;;;2033324;29;20020;-87
2022/09/05 03:34:17;;;;;;;8.38;3.85;;;;;;;;;;2016482;29;20997;-88
2022/09/05 03:35:35;;;;;;;7.90;5.38;;;;;;;;;;2016613;29;20555;-88
2022/09/05 03:37:17;;;;;;;5.88;4.05;;;;;;;;;;2016513;29;20037;-88
2022/09/05 04:08:48;;;;;;;4.93;4.13;;;;;;;;;;2328199;23;20067;-88
2022/09/05 07:52:07;;;;;;;2.45;1.38;;;;;;;;;;2271426;23;20055;-89
2022/09/05 07:53:08;;;;;;;4.80;1.00;;;;;;;;;;2047630;29;20039;-90
2022/09/05 07:54:22;;;;;;;1.40;1.20;;;;;;;;;;2047752;29;20031;-88
2022/09/05 07:55:24;;;;;;;1.60;1.00;;;;;;;;;;2047286;29;20023;-89
2022/09/05 07:57:04;;;;;;;1.98;1.20;;;;;;;;;;2038541;29;20027;-89
2022/09/05 07:58:07;;;;;;;2.58;1.30;;;;;;;;;;2027807;29;20491;-89
2022/09/05 07:59:11;;;;;;;2.28;1.60;;;;;;;;;;2030498;29;20150;-89
2022/09/05 08:14:27;;;;;;;2.03;1.08;;;;;;;;;;2392707;23;20033;-91
2022/09/05 08:15:28;;;;;;;1.30;1.20;;;;;;;;;;2038465;29;20126;-90
2022/09/05 08:16:30;;;;;;;1.98;1.77;;;;;;;;;;2039476;29;20031;-90
2022/09/05 08:17:34;;;;;;;1.60;1.27;;;;;;;;;;2039569;29;20510;-90
2022/09/05 08:18:53;;;;;;;2.10;1.50;;;;;;;;;;2038982;29;20031;-90
2022/09/05 08:20:31;;;;;;;3.05;1.40;;;;;;;;;;2039117;29;20046;-90
2022/09/05 08:21:51;;;;;;;2.20;1.35;;;;;;;;;;1675089;29;10294261;-90
2022/09/05 08:25:33;;;;;;;3.90;1.58;;;;;;;;;;2022081;29;20111;-90
2022/09/05 08:26:42;;;;;;;4.70;1.40;;;;;;;;;;2012719;29;20048;-90
2022/09/05 08:28:18;;;;;;;3.45;1.52;;;;;;;;;;2016137;29;20070;-90
2022/09/05 08:30:07;;;;;;;2.30;1.00;;;;;;;;;;1669262;29;10000921;-89
2022/09/05 08:31:18;;;;;;;3.33;1.40;;;;;;;;;;2021383;29;20828;-90
2022/09/05 08:32:27;;;;;;;2.58;1.40;;;;;;;;;;2022978;29;20488;-90
2022/09/05 08:33:33;;;;;;;1.33;0.95;;;;;;;;;;2038550;29;20040;-90
2022/09/05 08:34:42;;;;;;;1.23;0.85;;;;;;;;;;2031510;29;20024;-90
2022/09/05 08:35:51;;;;;;;2.53;1.08;;;;;;;;;;2032130;29;20139;-89
2022/09/05 08:36:55;;;;;;;2.13;1.08;;;;;;;;;;2038832;29;20031;-90
2022/09/05 08:37:57;;;;;;;1.08;0.93;;;;;;;;;;2039698;29;20088;-90
2022/09/05 08:38:59;;;;;;;4.18;1.30;;;;;;;;;;2038849;29;20033;-90
2022/09/05 08:40:17;;;;;;;2.10;1.63;;;;;;;;;;2038643;29;20047;-90
2022/09/05 08:41:26;;;;;;;3.95;1.10;;;;;;;;;;2038335;29;20412;-90
2022/09/05 08:42:48;;;;;;;1.52;0.90;;;;;;;;;;2038748;29;20083;-90
2022/09/05 08:43:57;;;;;;;1.05;0.90;;;;;;;;;;1698138;29;10001464;-89
2022/09/05 08:45:21;;;;;;;2.40;1.48;;;;;;;;;;2031865;29;20028;-90
2022/09/05 08:46:37;;;;;;;2.53;1.40;;;;;;;;;;2039578;29;20027;-90
2022/09/05 08:48:06;;;;;;;1.50;1.35;;;;;;;;;;2039552;29;20416;-90
2022/09/05 08:49:28;;;;;;;1.50;1.00;;;;;;;;;;2026297;29;20067;-90
2022/09/05 08:50:52;;;;;;;1.00;0.85;;;;;;;;;;2038960;29;20035;-90
2022/09/05 08:52:01;;;;;;;1.23;1.02;;;;;;;;;;2051970;28;20043;-90
2022/09/05 08:53:08;;;;;;;1.08;0.98;;;;;;;;;;2057438;28;20070;-90
2022/09/05 08:54:36;;;;;;;1.05;0.95;;;;;;;;;;2042951;29;20044;-90
2022/09/05 08:55:48;;;;;;;1.50;1.00;;;;;;;;;;2043450;29;20073;-90
2022/09/05 08:57:08;;;;;;;0.93;0.85;;;;;;;;;;2047554;29;20031;-90
2022/09/05 08:58:31;;;;;;;1.63;1.10;;;;;;;;;;1698959;29;10001632;-91
2022/09/05 08:59:47;;;;;;;1.83;1.08;;;;;;;;;;2033620;29;20463;-90
2022/09/05 09:01:04;;;;;;;2.50;1.10;;;;;;;;;;2041012;29;20415;-90
2022/09/05 09:02:41;;;;;;;1.08;0.90;;;;;;;;;;2038635;29;20036;-89
2022/09/05 09:03:57;;;;;;;1.00;1.00;;;;;;;;;;2038739;29;20039;-90
2022/09/05 09:04:58;;;;;;;2.90;1.10;;;;;;;;;;2038641;29;20522;-89
2022/09/05 09:06:13;;;;;;;1.45;0.98;;;;;;;;;;2043807;29;20098;-91
2022/09/05 09:07:29;;;;;;;1.25;1.00;;;;;;;;;;2054139;29;20089;-90
2022/09/05 09:08:56;;;;;;;0.95;0.65;;;;;;;;;;2042780;29;20033;-89
2022/09/05 09:10:03;;;;;;;1.00;0.80;;;;;;;;;;2045334;29;20126;-89
2022/09/05 09:11:31;;;;;;;3.88;1.10;;;;;;;;;;2049426;29;20031;-89
2022/09/05 09:12:40;;;;;;;0.70;0.70;;;;;;;;;;2049413;29;20035;-90
2022/09/05 09:14:16;;;;;;;0.65;0.60;;;;;;;;;;2040104;29;20043;-90
2022/09/05 09:15:44;;;;;;;1.02;0.80;;;;;;;;;;2013097;29;20131;-91
2022/09/05 09:17:12;;;;;;;1.50;1.00;;;;;;;;;;2009243;29;20044;-89
2022/09/05 09:18:17;;;;;;;1.38;0.80;;;;;;;;;;2039636;29;20070;-90
2022/09/05 09:19:22;;;;;;;0.77;0.77;;;;;;;;;;2032707;29;20137;-89
2022/09/05 09:20:41;;;;;;;1.83;0.82;;;;;;;;;;2040716;29;20047;-90
2022/09/05 09:22:07;;;;;;;1.60;1.15;;;;;;;;;;2048582;29;20363;-90
2022/09/05 09:23:21;;;;;;;0.95;0.90;;;;;;;;;;2019890;29;20539;-89
2022/09/05 09:24:39;;;;;;;2.97;1.10;;;;;;;;;;2041598;29;20038;-89
2022/09/05 09:25:54;;;;;;;1.60;1.50;;;;;;;;;;2047688;29;20421;-89
2022/09/05 09:27:00;;;;;;;2.10;0.98;;;;;;;;;;2048056;29;20035;-90
2022/09/05 09:28:30;;;;;;;1.53;0.80;;;;;;;;;;1958816;29;10079894;-90
2022/09/05 09:29:35;;;;;;;2.00;1.00;;;;;;;;;;2051725;28;20284;-90
2022/09/05 09:30:40;;;;;;;3.80;0.93;;;;;;;;;;2055372;28;20133;-90
2022/09/05 09:32:05;;;;;;;1.27;0.70;;;;;;;;;;2047554;29;20102;-90
2022/09/05 09:33:10;;;;;;;1.45;0.93;;;;;;;;;;2047604;28;20067;-91
2022/09/05 09:34:12;;;;;;;0.60;0.55;;;;;;;;;;2048556;28;20111;-91
2022/09/05 09:35:22;;;;;;;0.90;0.80;;;;;;;;;;2048509;28;20493;-89
2022/09/05 09:36:41;;;;;;;0.65;0.65;;;;;;;;;;2048052;29;20023;-90
2022/09/05 09:38:09;;;;;;;1.80;1.00;;;;;;;;;;2042324;29;20052;-90
2022/09/05 09:39:36;;;;;;;1.25;0.80;;;;;;;;;;1696215;29;10200681;-90
2022/09/05 09:40:57;;;;;;;3.15;1.00;;;;;;;;;;2025902;28;20041;-89
2022/09/05 09:42:22;;;;;;;0.68;0.57;;;;;;;;;;2056100;28;20341;-90
2022/09/05 09:43:39;;;;;;;1.48;0.57;;;;;;;;;;2048543;28;20533;-90
2022/09/05 09:45:00;;;;;;;0.88;0.73;;;;;;;;;;2048179;29;20495;-88
2022/09/05 09:46:10;;;;;;;;;;;;;;;;;;2043394;29;20122;-89
2022/09/05 09:47:13;;;;;;;1.85;0.63;;;;;;;;;;2040942;29;19910;-88
2022/09/05 09:48:35;;;;;;;1.45;0.68;;;;;;;;;;2040396;29;20114;-90
2022/09/05 09:49:54;;;;;;;1.48;0.82;;;;;;;;;;2042408;29;20046;-89
2022/09/05 09:51:07;;;;;;;2.08;0.60;;;;;;;;;;2042084;29;20020;-90
2022/09/05 09:52:30;;;;;;;0.80;0.60;;;;;;;;;;2047911;29;20023;-90
2022/09/05 09:53:32;;;;;;;1.95;0.50;;;;;;;;;;2047616;29;20467;-91
2022/09/05 09:55:11;;;;;;;2.03;0.70;;;;;;;;;;2048039;29;20023;-91
2022/09/05 09:56:25;;;;;;;1.27;0.50;;;;;;;;;;2048594;29;20038;-91
2022/09/05 09:57:59;;;;;;;0.90;0.60;;;;;;;;;;2047786;29;20481;-91
2022/09/05 09:59:00;;;;;;;1.17;0.60;;;;;;;;;;2047686;29;20015;-91
2022/09/05 10:00:06;;;;;;;1.02;0.35;;;;;;;;;;2048076;29;20110;-92
2022/09/05 10:01:09;;;;;;;1.00;0.70;;;;;;;;;;2051443;28;20479;-91
2022/09/05 10:02:21;;;;;;;0.73;0.63;;;;;;;;;;2048779;29;20023;-91
2022/09/05 10:03:42;;;;;;;0.73;0.70;;;;;;;;;;2048278;29;20113;-92
2022/09/05 10:04:57;;;;;;;0.93;0.60;;;;;;;;;;2047785;29;20488;-91
2022/09/05 10:06:13;;;;;;;0.50;0.50;;;;;;;;;;2047933;29;20034;-91
2022/09/05 10:07:22;;;;;;;2.22;0.70;;;;;;;;;;2047641;29;20035;-90
2022/09/05 10:08:47;;;;;;;0.75;0.57;;;;;;;;;;2040893;29;20130;-90
2022/09/05 10:10:09;;;;;;;1.35;0.70;;;;;;;;;;2042682;29;20550;-90
2022/09/05 10:11:58;;;;;;;2.83;0.75;;;;;;;;;;2050439;28;20041;-90
2022/09/05 10:13:22;;;;;;;2.65;1.48;;;;;;;;;;2044759;29;20041;-89
2022/09/05 10:14:36;;;;;;;1.75;0.90;;;;;;;;;;2050756;28;20034;-90
2022/09/05 10:16:07;;;;;;;2.28;0.80;;;;;;;;;;2056514;28;20482;-91
2022/09/05 10:17:25;;;;;;;0.70;0.70;;;;;;;;;;2047486;29;20260;-90
2022/09/05 10:18:41;;;;;;;1.40;0.65;;;;;;;;;;2049893;28;20514;-90
2022/09/05 10:20:09;;;;;;;0.45;0.40;;;;;;;;;;2047408;28;20029;-91
2022/09/05 10:21:18;;;;;;;1.85;0.70;;;;;;;;;;2043187;29;20086;-90
2022/09/05 10:22:37;;;;;;;3.28;0.60;;;;;;;;;;2047590;29;20031;-91
2022/09/05 10:23:49;;;;;;;1.10;0.73;;;;;;;;;;2049939;28;20529;-90
2022/09/05 10:25:07;;;;;;;1.50;0.60;;;;;;;;;;2047394;29;20039;-90
2022/09/05 10:26:26;;;;;;;0.80;0.70;;;;;;;;;;2047500;29;20030;-89
2022/09/05 10:27:26;;;;;;;0.65;0.45;;;;;;;;;;2042307;29;20105;-89
2022/09/05 10:28:57;;;;;;;0.88;0.60;;;;;;;;;;2047327;29;20059;-90
2022/09/05 10:30:22;;;;;;;0.60;0.40;;;;;;;;;;2027219;29;20046;-89
2022/09/05 10:31:55;;;;;;;0.80;0.50;;;;;;;;;;2050774;28;20052;-89
2022/09/05 10:33:34;;;;;;;1.40;0.60;;;;;;;;;;2036483;29;20035;-90
2022/09/05 10:35:10;;;;;;;0.60;0.40;;;;;;;;;;2052698;28;20018;-91
2022/09/05 10:36:22;;;;;;;2.13;0.45;;;;;;;;;;2056256;28;20050;-92
2022/09/05 10:37:40;;;;;;;2.05;0.52;;;;;;;;;;2047685;29;20019;-90
2022/09/05 10:38:48;;;;;;;0.85;0.50;;;;;;;;;;2049886;28;20067;-90
2022/09/05 10:39:50;;;;;;;0.85;0.50;;;;;;;;;;2047248;29;20110;-90
2022/09/05 10:41:09;;;;;;;1.30;0.40;;;;;;;;;;2039586;29;20028;-90
2022/09/05 10:42:36;;;;;;;0.95;0.40;;;;;;;;;;2042025;29;20462;-90
2022/09/05 10:44:01;;;;;;;0.88;0.50;;;;;;;;;;2042774;29;20031;-90
2022/09/05 10:45:08;;;;;;;0.40;0.40;;;;;;;;;;2033252;29;20043;-90
2022/09/05 10:46:27;;;;;;;0.85;0.50;;;;;;;;;;2048380;28;20030;-90
2022/09/05 10:47:46;;;;;;;0.60;0.50;;;;;;;;;;2047318;29;20030;-90
2022/09/05 10:48:52;;;;;;;0.95;0.50;;;;;;;;;;2042163;29;20169;-90
2022/09/05 10:50:02;;;;;;;1.23;0.47;;;;;;;;;;2049803;29;20042;-90
2022/09/05 10:51:28;;;;;;;0.43;0.40;;;;;;;;;;2043064;29;20036;-90
2022/09/05 10:52:59;;;;;;;1.85;0.68;;;;;;;;;;2051480;28;20617;-90
2022/09/05 10:54:36;;;;;;;3.40;0.45;;;;;;;;;;2015280;29;20037;-90
2022/09/05 10:55:59;;;;;;;1.67;0.50;;;;;;;;;;2052552;28;20035;-89
2022/09/05 10:57:50;;;;;;;2.83;0.55;;;;;;;;;;2055890;28;20050;-90
2022/09/05 10:58:58;;;;;;;;;;;;;;;;;;2016067;29;20029;-91
2022/09/05 10:59:59;;;;;;;0.47;0.45;;;;;;;;;;2040146;29;19915;-91
2022/09/05 11:01:00;;;;;;;0.95;0.50;;;;;;;;;;2039226;29;20074;-90
2022/09/05 11:02:25;;;;;;;1.52;0.57;;;;;;;;;;2047119;29;20105;-90
2022/09/05 11:03:32;;;;;;;0.30;0.30;;;;;;;;;;2055814;28;20027;-89
2022/09/05 11:04:35;;;;;;;0.75;0.30;;;;;;;;;;2055745;28;20027;-90
2022/09/05 11:05:37;;;;;;;2.05;0.40;;;;;;;;;;2055872;28;20106;-90
2022/09/05 11:06:41;;;;;;;1.02;0.70;;;;;;;;;;2055662;28;20382;-90
2022/09/05 11:08:04;;;;;;;1.40;0.60;;;;;;;;;;2055912;28;20102;-89
2022/09/05 11:09:11;;;;;;;0.47;0.40;;;;;;;;;;2055760;28;20557;-89
2022/09/05 11:10:22;;;;;;;0.95;0.52;;;;;;;;;;2055758;28;20043;-89
2022/09/05 11:11:25;;;;;;;0.82;0.55;;;;;;;;;;2047078;29;20038;-89
2022/09/05 11:12:49;;;;;;;0.65;0.45;;;;;;;;;;2047062;28;20291;-89
2022/09/05 11:13:59;;;;;;;1.05;0.60;;;;;;;;;;2055868;28;20030;-89
2022/09/05 11:15:09;;;;;;;0.55;0.40;;;;;;;;;;2055700;28;20022;-90
2022/09/05 11:18:44;;;;;;;0.40;0.40;;;;;;;;;;2029968;29;20058;-89
2022/09/05 11:19:53;;;;;;;1.20;0.50;;;;;;;;;;2055559;28;20122;-90
2022/09/05 11:21:06;;;;;;;1.23;0.50;;;;;;;;;;2055439;28;20121;-89
2022/09/05 11:22:08;;;;;;;2.10;0.47;;;;;;;;;;2046985;29;20023;-89
2022/09/05 11:23:16;;;;;;;0.65;0.40;;;;;;;;;;2046934;28;20541;-89
2022/09/05 11:24:56;;;;;;;0.80;0.43;;;;;;;;;;2055535;28;20109;-89
2022/09/05 11:26:04;;;;;;;1.35;0.40;;;;;;;;;;2055684;28;20254;-89
2022/09/05 11:27:35;;;;;;;0.70;0.52;;;;;;;;;;2047072;29;20027;-88
2022/09/05 11:28:40;;;;;;;0.38;0.30;;;;;;;;;;2051371;28;20022;-89
2022/09/05 11:38:32;;;;;;;0.93;0.30;;;;;;;;;;2014642;29;20092;-88
2022/09/05 11:43:52;;;;;;;0.60;0.40;;;;;;;;;;1999654;29;20482;-90
2022/09/05 11:44:56;;;;;;;0.50;0.50;;;;;;;;;;1992337;29;20222;-89
2022/09/05 11:50:34;;;;;;;1.02;0.40;;;;;;;;;;1898397;29;10115189;-90
2022/09/05 11:51:47;;;;;;;0.95;0.40;;;;;;;;;;2007437;29;20259;-89
2022/09/05 11:53:24;;;;;;;0.70;0.50;;;;;;;;;;1659743;29;10376979;-89
2022/09/05 11:54:53;;;;;;;3.03;0.52;;;;;;;;;;2014986;29;20108;-89
2022/09/05 11:56:29;;;;;;;0.25;0.25;;;;;;;;;;2022220;28;20033;-89
2022/09/05 11:58:07;;;;;;;0.90;0.30;;;;;;;;;;2014285;29;20162;-90
2022/09/05 11:59:36;;;;;;;1.13;0.65;;;;;;;;;;2035574;28;20462;-89
2022/09/05 12:00:58;;;;;;;2.10;0.60;;;;;;;;;;2015039;29;20517;-89
2022/09/05 12:02:13;;;;;;;0.52;0.30;;;;;;;;;;2024657;28;20032;-88
2022/09/05 12:03:16;;;;;;;1.50;0.43;;;;;;;;;;2046574;29;20035;-87
2022/09/05 12:04:34;;;;;;;0.60;0.40;;;;;;;;;;2047135;28;20030;-90
2022/09/05 12:06:02;;;;;;;0.40;0.20;;;;;;;;;;2046675;29;20062;-90
2022/09/05 12:07:34;;;;;;;0.85;0.38;;;;;;;;;;2050641;28;20338;-89
2022/09/05 12:08:39;;;;;;;1.02;0.45;;;;;;;;;;1701306;29;10110860;-88
2022/09/05 12:10:12;;;;;;;1.05;0.40;;;;;;;;;;2047235;28;20514;-88
2022/09/05 12:11:19;;;;;;;0.52;0.40;;;;;;;;;;2057320;28;20027;-89
2022/09/05 12:12:46;;;;;;;2.35;0.57;;;;;;;;;;2059088;28;20284;-88
2022/09/05 12:14:14;;;;;;;2.28;0.50;;;;;;;;;;2058680;28;20121;-87
2022/09/05 12:15:28;;;;;;;0.63;0.30;;;;;;;;;;2056159;28;20042;-90
2022/09/05 12:16:45;;;;;;;1.20;0.50;;;;;;;;;;2047597;29;20122;-88
2022/09/05 12:17:59;;;;;;;1.17;0.52;;;;;;;;;;2049280;28;20058;-90
2022/09/05 12:19:25;;;;;;;0.50;0.35;;;;;;;;;;2055418;28;20105;-90
2022/09/05 12:20:53;;;;;;;3.63;2.15;;;;;;;;;;1833314;28;10244667;-91
2022/09/05 12:22:08;;;;;;;1.73;0.30;;;;;;;;;;1695266;29;10294092;-90
2022/09/05 12:23:39;;;;;;;1.80;0.50;;;;;;;;;;2049027;28;20573;-89
2022/09/05 12:24:57;;;;;;;1.50;0.30;;;;;;;;;;2049260;29;20029;-90
2022/09/05 12:26:08;;;;;;;0.38;0.25;;;;;;;;;;2053909;28;20529;-91
2022/09/05 12:27:14;;;;;;;0.38;0.30;;;;;;;;;;2050800;29;20037;-92
2022/09/05 12:28:24;;;;;;;0.75;0.40;;;;;;;;;;2048842;28;20027;-90
2022/09/05 12:29:33;;;;;;;0.80;0.50;;;;;;;;;;2048185;29;20034;-91
2022/09/05 12:30:40;;;;;;;0.60;0.30;;;;;;;;;;2041006;29;20031;-90
2022/09/05 12:31:45;;;;;;;1.85;0.40;;;;;;;;;;2048662;28;20062;-91
2022/09/05 12:32:51;;;;;;;2.53;0.47;;;;;;;;;;2055186;28;20075;-91
2022/09/05 12:33:52;;;;;;;0.50;0.35;;;;;;;;;;2055681;28;20574;-91
2022/09/05 12:34:57;;;;;;;0.47;0.30;;;;;;;;;;2046978;29;20138;-91
2022/09/05 12:36:11;;;;;;;0.40;0.38;;;;;;;;;;2039521;29;20023;-90
2022/09/05 12:39:43;;;;;;;0.20;0.20;;;;;;;;;;2032089;28;20042;-90
2022/09/05 12:41:24;;;;;;;0.52;0.20;;;;;;;;;;2055432;28;20109;-89
2022/09/05 12:42:39;;;;;;;0.60;0.50;;;;;;;;;;2044270;29;20035;-89
2022/09/05 12:43:54;;;;;;;0.43;0.40;;;;;;;;;;2041253;29;20505;-89
2022/09/05 12:45:10;;;;;;;1.02;0.38;;;;;;;;;;2048219;29;20027;-89
2022/09/05 12:47:01;;;;;;;0.68;0.25;;;;;;;;;;2050198;28;20470;-91
2022/09/05 12:48:17;;;;;;;0.52;0.30;;;;;;;;;;2023891;29;20043;-89
2022/09/05 12:49:23;;;;;;;1.90;0.30;;;;;;;;;;2029574;29;20479;-88